Time;durP1;ratioP1;P1;durP2;ratioP2;P2;SDS_P1;SDS_P2;PMS_P1;PMS_P2;Temp;Humidity;BMP_temperature;BMP_pressure;BME280_temperature;BME280_humidity;BME280_pressure;Samples;Min_cycle;Max_cycle;Signal;HPM_P1;HPM_P2
2022/12/04 00:03:31;;;;;;;;;;;1.50;99.90;;;;;;8395694;28;20648;-78
2022/12/04 00:07:33;;;;;;;;;;;1.50;99.90;;;;;;8395969;28;20399;-78
2022/12/04 00:11:35;;;;;;;;;;;1.50;99.90;;;;;;8393482;28;19950;-78
2022/12/04 00:15:39;;;;;;;;;;;1.50;99.90;;;;;;8391171;28;19928;-78
2022/12/04 00:19:41;;;;;;;;;;;1.50;99.90;;;;;;8391457;28;19924;-78
2022/12/04 00:23:43;;;;;;;;;;;1.50;99.90;;;;;;8395504;28;20372;-78
2022/12/04 00:27:44;;;;;;;;;;;1.50;99.90;;;;;;8392922;28;19924;-78
2022/12/04 00:31:46;;;;;;;;;;;1.60;99.90;;;;;;8386444;28;19933;-78
2022/12/04 00:35:55;;;;;;;;;;;1.60;99.90;;;;;;8393464;28;19931;-78
2022/12/04 00:39:56;;;;;;;;;;;1.60;99.90;;;;;;8395851;28;19935;-78
2022/12/04 00:43:59;;;;;;;;;;;1.60;99.90;;;;;;8390852;28;20307;-78
2022/12/04 00:48:00;;;;;;;;;;;1.60;99.90;;;;;;8375843;28;19924;-78
2022/12/04 00:52:02;;;;;;;;;;;1.60;99.90;;;;;;8390250;28;20353;-78
2022/12/04 00:56:14;;;;;;;;;;;1.60;99.90;;;;;;8394298;28;19924;-78
2022/12/04 01:00:18;;;;;;;;;;;1.60;99.90;;;;;;8393855;28;19928;-78
2022/12/04 01:04:20;;;;;;;;;;;1.60;99.90;;;;;;8378979;28;20419;-78
2022/12/04 01:08:22;;;;;;;;;;;1.50;99.90;;;;;;8388159;28;20277;-78
2022/12/04 01:12:23;;;;;;;;;;;1.60;99.90;;;;;;8393758;28;19956;-78
2022/12/04 01:16:27;;;;;;;;;;;1.60;99.90;;;;;;8390475;28;20379;-78
2022/12/04 01:20:29;;;;;;;;;;;1.60;99.90;;;;;;8393714;28;19924;-78
2022/12/04 01:24:30;;;;;;;;;;;1.50;99.90;;;;;;8388381;28;19967;-78
2022/12/04 01:28:32;;;;;;;;;;;1.60;99.90;;;;;;8393956;28;19924;-78
2022/12/04 01:32:34;;;;;;;;;;;1.60;99.90;;;;;;8386369;28;20413;-78
2022/12/04 01:36:35;;;;;;;;;;;1.60;99.90;;;;;;8389152;28;20010;-78
2022/12/04 01:40:42;;;;;;;;;;;1.60;99.90;;;;;;8391744;28;19972;-79
2022/12/04 01:45:03;;;;;;;;;;;1.60;99.90;;;;;;8393419;28;19929;-78
2022/12/04 01:49:11;;;;;;;;;;;1.60;99.90;;;;;;8368585;28;20339;-78
2022/12/04 01:53:13;;;;;;;;;;;1.60;99.90;;;;;;8393158;28;20446;-78
2022/12/04 01:57:16;;;;;;;;;;;1.60;99.90;;;;;;8363791;28;19978;-78
2022/12/04 02:01:18;;;;;;;;;;;1.60;99.90;;;;;;8369134;28;19967;-78
2022/12/04 02:05:20;;;;;;;;;;;1.60;99.90;;;;;;8390958;28;19935;-78
2022/12/04 02:09:22;;;;;;;;;;;1.60;99.90;;;;;;8391086;28;20364;-78
2022/12/04 02:13:34;;;;;;;;;;;1.60;99.90;;;;;;8387269;28;20287;-77
2022/12/04 02:17:54;;;;;;;;;;;1.60;99.90;;;;;;8390001;28;19947;-78
2022/12/04 02:21:57;;;;;;;;;;;1.60;99.90;;;;;;8373725;28;21595;-77
2022/12/04 02:26:14;;;;;;;;;;;1.60;99.90;;;;;;8392833;28;19924;-78
2022/12/04 02:30:16;;;;;;;;;;;1.70;99.90;;;;;;8398243;28;19931;-78
2022/12/04 02:34:40;;;;;;;;;;;1.60;99.90;;;;;;8396800;28;20260;-78
2022/12/04 02:38:46;;;;;;;;;;;1.60;99.90;;;;;;8379347;28;20418;-78
2022/12/04 02:43:07;;;;;;;;;;;1.70;99.90;;;;;;8379812;28;19936;-78
2022/12/04 02:47:15;;;;;;;;;;;1.60;99.90;;;;;;8369474;28;19968;-78
2022/12/04 02:51:19;;;;;;;;;;;1.60;99.90;;;;;;8397566;28;19924;-78
2022/12/04 02:55:29;;;;;;;;;;;1.60;99.90;;;;;;8381661;28;19924;-77
2022/12/04 02:59:33;;;;;;;;;;;1.60;99.90;;;;;;8370961;28;19983;-78
2022/12/04 03:03:35;;;;;;;;;;;1.60;99.90;;;;;;8375049;28;19933;-78
2022/12/04 03:07:40;;;;;;;;;;;1.60;99.90;;;;;;8388593;28;19939;-78
2022/12/04 03:11:45;;;;;;;;;;;1.60;99.90;;;;;;8404937;28;19955;-78
2022/12/04 03:15:50;;;;;;;;;;;1.60;99.90;;;;;;8397221;28;19972;-78
2022/12/04 03:19:55;;;;;;;;;;;1.60;99.90;;;;;;8398348;28;19979;-78
2022/12/04 03:24:17;;;;;;;;;;;1.60;99.90;;;;;;8385203;28;19970;-78
2022/12/04 03:28:26;;;;;;;;;;;1.60;99.90;;;;;;8394017;28;19928;-78
2022/12/04 03:32:34;;;;;;;;;;;1.60;99.90;;;;;;8383612;28;19932;-78
2022/12/04 03:36:37;;;;;;;;;;;1.60;99.90;;;;;;8389620;28;19931;-78
2022/12/04 03:40:51;;;;;;;;;;;1.60;99.90;;;;;;8388069;28;19931;-78
2022/12/04 03:45:06;;;;;;;;;;;1.60;99.90;;;;;;8397528;28;19935;-79
2022/12/04 03:49:13;;;;;;;;;;;1.60;99.90;;;;;;8387760;28;20054;-78
2022/12/04 03:53:21;;;;;;;;;;;1.60;99.90;;;;;;8392366;28;19971;-78
2022/12/04 03:57:26;;;;;;;;;;;1.60;99.90;;;;;;8382678;28;19925;-78
2022/12/04 04:01:33;;;;;;;;;;;1.60;99.90;;;;;;8395531;28;19927;-78
2022/12/04 04:05:35;;;;;;;;;;;1.60;99.90;;;;;;8390810;28;19972;-78
2022/12/04 04:09:39;;;;;;;;;;;1.60;99.90;;;;;;8395667;28;19924;-78
2022/12/04 04:27:04;;;;;;;;;;;1.60;99.90;;;;;;8387294;28;20008;-79
2022/12/04 04:31:10;;;;;;;;;;;1.60;99.90;;;;;;8389436;28;19967;-79
2022/12/04 04:35:23;;;;;;;;;;;1.60;99.90;;;;;;8382409;28;19925;-78
2022/12/04 04:39:30;;;;;;;;;;;1.70;99.90;;;;;;8388750;28;19924;-78
2022/12/04 04:43:32;;;;;;;;;;;1.60;99.90;;;;;;8391732;28;19940;-79
2022/12/04 04:47:43;;;;;;;;;;;1.60;99.90;;;;;;8390224;28;19968;-78
2022/12/04 04:51:45;;;;;;;;;;;1.60;99.90;;;;;;8366515;28;19943;-78
2022/12/04 04:55:47;;;;;;;;;;;1.60;99.90;;;;;;8381954;28;20003;-78
2022/12/04 04:59:49;;;;;;;;;;;1.60;99.90;;;;;;8386472;28;20046;-78
2022/12/04 05:03:51;;;;;;;;;;;1.60;99.90;;;;;;8389043;28;19924;-78
2022/12/04 05:07:52;;;;;;;;;;;1.60;99.90;;;;;;8391273;28;19979;-78
2022/12/04 05:11:54;;;;;;;;;;;1.60;99.90;;;;;;8389955;28;19925;-79
2022/12/04 05:16:00;;;;;;;;;;;1.60;99.90;;;;;;8393922;28;19929;-78
2022/12/04 05:20:03;;;;;;;;;;;1.60;99.90;;;;;;8388330;28;19931;-78
2022/12/04 05:24:07;;;;;;;;;;;1.60;99.90;;;;;;8381148;28;20131;-78
2022/12/04 05:28:08;;;;;;;;;;;1.70;99.90;;;;;;8386229;28;19971;-78
2022/12/04 05:32:10;;;;;;;;;;;1.60;99.90;;;;;;8371527;28;19934;-78
2022/12/04 05:36:12;;;;;;;;;;;1.60;99.90;;;;;;8384430;28;19925;-79
2022/12/04 05:40:14;;;;;;;;;;;1.60;99.90;;;;;;8385413;28;20788;-79
2022/12/04 05:44:15;;;;;;;;;;;1.60;99.90;;;;;;8388962;28;19959;-78
2022/12/04 05:48:17;;;;;;;;;;;1.60;99.90;;;;;;8387091;28;20409;-78
2022/12/04 05:52:18;;;;;;;;;;;1.60;99.90;;;;;;8379177;28;19928;-78
2022/12/04 05:56:20;;;;;;;;;;;1.60;99.90;;;;;;8371301;28;19925;-78
2022/12/04 06:00:22;;;;;;;;;;;1.60;99.90;;;;;;8386515;28;20248;-78
2022/12/04 06:04:23;;;;;;;;;;;1.60;99.90;;;;;;8389190;28;19972;-78
2022/12/04 06:08:25;;;;;;;;;;;1.60;99.90;;;;;;8399220;28;19925;-78
2022/12/04 06:12:28;;;;;;;;;;;1.70;99.90;;;;;;8391210;28;19947;-78
2022/12/04 06:16:31;;;;;;;;;;;1.60;99.90;;;;;;8392648;28;20252;-78
2022/12/04 06:20:33;;;;;;;;;;;1.60;99.90;;;;;;8396213;28;19959;-79
2022/12/04 06:24:34;;;;;;;;;;;1.60;99.90;;;;;;8385566;28;19928;-78
2022/12/04 06:28:36;;;;;;;;;;;1.70;99.90;;;;;;8371951;28;19987;-78
2022/12/04 06:32:38;;;;;;;;;;;1.70;99.90;;;;;;8387551;28;19972;-78
2022/12/04 06:36:39;;;;;;;;;;;1.60;99.90;;;;;;8390582;28;19931;-78
2022/12/04 06:40:41;;;;;;;;;;;1.60;99.90;;;;;;8372499;28;20030;-78
2022/12/04 06:44:43;;;;;;;;;;;1.70;99.90;;;;;;8391361;28;19946;-77
2022/12/04 06:48:45;;;;;;;;;;;1.70;99.90;;;;;;8386865;28;20004;-78
2022/12/04 06:52:46;;;;;;;;;;;1.70;99.90;;;;;;8395538;28;20402;-78
2022/12/04 06:56:48;;;;;;;;;;;1.70;99.90;;;;;;8370392;28;19928;-78
2022/12/04 07:00:50;;;;;;;;;;;1.70;99.90;;;;;;8385335;28;19944;-78
2022/12/04 07:04:55;;;;;;;;;;;1.70;99.90;;;;;;8386876;28;19970;-77
2022/12/04 07:09:03;;;;;;;;;;;1.70;99.90;;;;;;8393959;28;20662;-78
2022/12/04 07:13:05;;;;;;;;;;;1.70;99.90;;;;;;8387922;28;19947;-78
2022/12/04 07:17:06;;;;;;;;;;;1.70;99.90;;;;;;8389143;28;19931;-77
2022/12/04 07:21:10;;;;;;;;;;;1.70;99.90;;;;;;8393599;28;19928;-78
2022/12/04 07:25:11;;;;;;;;;;;1.70;99.90;;;;;;8372152;28;19935;-78
2022/12/04 07:29:13;;;;;;;;;;;1.70;99.90;;;;;;8378304;28;19987;-78
2022/12/04 07:33:15;;;;;;;;;;;1.70;99.90;;;;;;8388330;28;19947;-78
2022/12/04 07:37:17;;;;;;;;;;;1.70;99.90;;;;;;8396440;28;19932;-78
2022/12/04 07:41:19;;;;;;;;;;;1.70;99.90;;;;;;8388861;28;19933;-78
2022/12/04 07:45:20;;;;;;;;;;;1.70;99.90;;;;;;8390265;28;19955;-78
2022/12/04 07:49:22;;;;;;;;;;;1.70;99.90;;;;;;8386764;28;19931;-78
2022/12/04 07:53:24;;;;;;;;;;;1.70;99.90;;;;;;8377407;28;20388;-78
2022/12/04 07:57:26;;;;;;;;;;;1.70;99.90;;;;;;8391327;28;20423;-78
2022/12/04 08:01:30;;;;;;;;;;;1.70;99.90;;;;;;8371014;28;19986;-78
2022/12/04 08:05:32;;;;;;;;;;;1.70;99.90;;;;;;8375921;28;20057;-78
2022/12/04 08:09:34;;;;;;;;;;;1.70;99.90;;;;;;8389953;28;19971;-78
2022/12/04 08:13:35;;;;;;;;;;;1.70;99.90;;;;;;8390335;28;19951;-78
2022/12/04 08:17:37;;;;;;;;;;;1.80;99.90;;;;;;8390812;28;20366;-77
2022/12/04 08:21:39;;;;;;;;;;;1.80;99.90;;;;;;8391096;28;19967;-78
2022/12/04 08:25:40;;;;;;;;;;;1.80;99.90;;;;;;8374181;28;19987;-77
2022/12/04 08:29:42;;;;;;;;;;;1.80;99.90;;;;;;8391153;28;19925;-78
2022/12/04 08:33:44;;;;;;;;;;;1.80;99.90;;;;;;8376666;28;20098;-78
2022/12/04 08:37:46;;;;;;;;;;;1.80;99.90;;;;;;8389223;28;20047;-78
2022/12/04 08:41:47;;;;;;;;;;;1.90;99.90;;;;;;8378638;28;20283;-78
2022/12/04 08:45:58;;;;;;;;;;;1.90;99.90;;;;;;8358938;28;20269;-78
2022/12/04 08:49:59;;;;;;;;;;;1.90;99.90;;;;;;8389747;28;19932;-78
2022/12/04 08:54:03;;;;;;;;;;;1.90;99.90;;;;;;8362163;28;19933;-78
2022/12/04 08:58:04;;;;;;;;;;;2.00;99.90;;;;;;8382040;28;19940;-78
2022/12/04 09:02:07;;;;;;;;;;;2.00;99.90;;;;;;8389490;28;20067;-78
2022/12/04 09:06:10;;;;;;;;;;;2.00;99.90;;;;;;8399892;28;19951;-78
2022/12/04 09:20:19;;;;;;;;;;;2.10;99.90;;;;;;8369650;28;19931;-77
2022/12/04 09:24:21;;;;;;;;;;;2.10;99.90;;;;;;8388137;28;20251;-79
2022/12/04 09:28:22;;;;;;;;;;;2.10;99.90;;;;;;8377786;28;19933;-79
2022/12/04 09:32:24;;;;;;;;;;;2.10;99.90;;;;;;8378635;28;19924;-79
2022/12/04 09:36:26;;;;;;;;;;;2.10;99.90;;;;;;8386064;28;20560;-79
2022/12/04 09:40:29;;;;;;;;;;;2.10;99.90;;;;;;8383257;28;20141;-79
2022/12/04 09:44:42;;;;;;;;;;;2.10;99.90;;;;;;8390272;28;19931;-79
2022/12/04 09:48:45;;;;;;;;;;;2.20;99.90;;;;;;8395202;28;19940;-79
2022/12/04 09:53:09;;;;;;;;;;;2.20;99.90;;;;;;8392841;28;19962;-77
2022/12/04 09:57:31;;;;;;;;;;;2.20;99.90;;;;;;8385455;28;19962;-79
2022/12/04 10:01:42;;;;;;;;;;;2.20;99.90;;;;;;8369655;28;20393;-79
2022/12/04 10:05:55;;;;;;;;;;;2.20;99.90;;;;;;8390287;28;19932;-79
2022/12/04 10:09:57;;;;;;;;;;;2.20;99.90;;;;;;8388531;28;19924;-77
2022/12/04 10:14:17;;;;;;;;;;;2.20;99.90;;;;;;8369584;28;19931;-78
2022/12/04 10:18:35;;;;;;;;;;;2.20;99.90;;;;;;8386677;28;19928;-79
2022/12/04 10:22:49;;;;;;;;;;;2.20;99.90;;;;;;8387123;28;19974;-80
2022/12/04 10:26:53;;;;;;;;;;;2.20;99.90;;;;;;8385163;28;20136;-78
2022/12/04 10:30:58;;;;;;;;;;;2.20;99.90;;;;;;8371911;28;20409;-79
2022/12/04 10:35:17;;;;;;;;;;;2.20;99.90;;;;;;8385889;28;20411;-79
2022/12/04 10:39:20;;;;;;;;;;;2.20;99.90;;;;;;8388888;28;20454;-79
2022/12/04 10:43:29;;;;;;;;;;;2.10;99.90;;;;;;8388667;28;20371;-79
2022/12/04 10:47:32;;;;;;;;;;;2.10;99.90;;;;;;8386654;28;20039;-80
2022/12/04 10:51:38;;;;;;;;;;;2.10;99.90;;;;;;8391750;28;19939;-80
2022/12/04 10:55:40;;;;;;;;;;;2.20;99.90;;;;;;8358742;28;20375;-80
2022/12/04 10:59:55;;;;;;;;;;;2.20;99.90;;;;;;8361098;28;19929;-79
2022/12/04 11:04:08;;;;;;;;;;;2.20;99.90;;;;;;8364498;28;19928;-79
2022/12/04 11:08:19;;;;;;;;;;;2.20;99.90;;;;;;8363187;28;19935;-79
2022/12/04 11:12:22;;;;;;;;;;;2.20;99.90;;;;;;8361683;28;19928;-80
2022/12/04 11:16:30;;;;;;;;;;;2.20;99.90;;;;;;8364307;28;19931;-79
2022/12/04 11:20:31;;;;;;;;;;;2.20;99.90;;;;;;8373970;28;19986;-79
2022/12/04 11:24:34;;;;;;;;;;;2.20;99.90;;;;;;8359692;28;24130;-80
2022/12/04 11:28:39;;;;;;;;;;;2.20;99.90;;;;;;8390703;28;19925;-79
2022/12/04 11:32:43;;;;;;;;;;;2.20;99.90;;;;;;8390847;28;20311;-79
2022/12/04 11:36:49;;;;;;;;;;;2.20;99.90;;;;;;8374170;28;20603;-79
2022/12/04 11:40:52;;;;;;;;;;;2.20;99.90;;;;;;8362318;28;19928;-79
2022/12/04 11:44:57;;;;;;;;;;;2.20;99.90;;;;;;8366878;28;19944;-80
2022/12/04 11:49:02;;;;;;;;;;;2.30;99.90;;;;;;8369247;28;19971;-79
2022/12/04 11:53:09;;;;;;;;;;;2.30;99.90;;;;;;8367507;28;19925;-79
2022/12/04 11:57:17;;;;;;;;;;;2.30;99.90;;;;;;8370670;28;20370;-79
2022/12/04 12:01:34;;;;;;;;;;;2.30;99.90;;;;;;8361541;28;19950;-79
2022/12/04 12:05:35;;;;;;;;;;;2.30;99.90;;;;;;8361289;28;19929;-79
2022/12/04 12:09:54;;;;;;;;;;;2.30;99.90;;;;;;8363191;28;19930;-79
2022/12/04 12:14:03;;;;;;;;;;;2.30;99.90;;;;;;8355235;28;19975;-80
2022/12/04 12:18:18;;;;;;;;;;;2.30;99.90;;;;;;8368383;28;20031;-79
2022/12/04 12:22:35;;;;;;;;;;;2.40;99.90;;;;;;8367771;28;19940;-79
2022/12/04 12:26:54;;;;;;;;;;;2.40;99.90;;;;;;8361949;28;20415;-79
2022/12/04 12:31:08;;;;;;;;;;;2.40;99.90;;;;;;8365598;28;20366;-80
2022/12/04 12:35:25;;;;;;;;;;;2.40;99.90;;;;;;8370396;28;19931;-79
2022/12/04 12:39:33;;;;;;;;;;;2.40;99.90;;;;;;8371621;28;19939;-79
2022/12/04 12:43:35;;;;;;;;;;;2.40;99.90;;;;;;8363886;28;19925;-79
2022/12/04 12:47:40;;;;;;;;;;;2.50;99.90;;;;;;8358873;28;19939;-79
2022/12/04 12:51:42;;;;;;;;;;;2.50;99.90;;;;;;8367737;28;19924;-79
2022/12/04 12:55:56;;;;;;;;;;;2.50;99.90;;;;;;8364852;28;19975;-80
2022/12/04 13:00:01;;;;;;;;;;;2.50;99.90;;;;;;8365933;28;19932;-80
2022/12/04 13:04:16;;;;;;;;;;;2.50;99.90;;;;;;8363895;28;19960;-80
2022/12/04 13:08:23;;;;;;;;;;;2.50;99.90;;;;;;8359382;28;19957;-79
2022/12/04 13:12:25;;;;;;;;;;;2.50;99.90;;;;;;8363902;28;19932;-80
2022/12/04 13:16:42;;;;;;;;;;;2.50;99.90;;;;;;8344139;28;20038;-80
2022/12/04 13:20:49;;;;;;;;;;;2.50;99.90;;;;;;8342477;28;20442;-79
2022/12/04 13:24:51;;;;;;;;;;;2.50;99.90;;;;;;8363901;28;19939;-80
2022/12/04 13:28:57;;;;;;;;;;;2.50;99.90;;;;;;8363173;28;19935;-80
2022/12/04 13:33:14;;;;;;;;;;;2.50;99.90;;;;;;8367500;28;20579;-79
2022/12/04 13:37:24;;;;;;;;;;;2.50;99.90;;;;;;8375515;28;20380;-79
2022/12/04 13:41:26;;;;;;;;;;;2.60;99.90;;;;;;8364571;28;19939;-79
2022/12/04 13:45:31;;;;;;;;;;;2.60;99.90;;;;;;8368563;28;19932;-80
2022/12/04 13:49:34;;;;;;;;;;;2.60;99.90;;;;;;8365019;28;20323;-79
2022/12/04 13:53:36;;;;;;;;;;;2.60;99.90;;;;;;8363618;28;19971;-79
2022/12/04 13:57:39;;;;;;;;;;;2.60;99.90;;;;;;8360206;28;20085;-79
2022/12/04 14:01:44;;;;;;;;;;;2.60;99.90;;;;;;8365606;28;19939;-80
2022/12/04 14:05:46;;;;;;;;;;;2.60;99.90;;;;;;8363301;28;20348;-79
2022/12/04 14:09:52;;;;;;;;;;;2.60;99.90;;;;;;8365008;28;19924;-79
2022/12/04 14:13:54;;;;;;;;;;;2.60;99.90;;;;;;8352175;28;19940;-79
2022/12/04 14:17:59;;;;;;;;;;;2.60;99.90;;;;;;8363509;28;19970;-80
2022/12/04 14:22:01;;;;;;;;;;;2.60;99.90;;;;;;8370426;28;20027;-79
2022/12/04 14:26:04;;;;;;;;;;;2.60;99.90;;;;;;8361098;28;20019;-79
2022/12/04 14:30:18;;;;;;;;;;;2.60;99.90;;;;;;8362333;28;19925;-80
2022/12/04 14:34:21;;;;;;;;;;;2.60;99.90;;;;;;8369692;28;19924;-80
2022/12/04 14:38:23;;;;;;;;;;;2.60;99.90;;;;;;8366209;28;20019;-79
2022/12/04 14:42:45;;;;;;;;;;;2.60;99.90;;;;;;8374486;28;20015;-80
2022/12/04 14:46:50;;;;;;;;;;;2.60;99.90;;;;;;8374378;28;19960;-80
2022/12/04 14:51:01;;;;;;;;;;;2.60;99.90;;;;;;8369921;28;20038;-79
2022/12/04 14:55:05;;;;;;;;;;;2.60;99.90;;;;;;8367480;28;19967;-79
2022/12/04 14:59:17;;;;;;;;;;;2.60;99.90;;;;;;8366425;28;20011;-79
2022/12/04 15:03:19;;;;;;;;;;;2.60;99.90;;;;;;8361700;28;19928;-80
2022/12/04 15:07:22;;;;;;;;;;;2.60;99.90;;;;;;8364375;28;19933;-79
2022/12/04 15:15:45;;;;;;;;;;;2.50;99.90;;;;;;8360724;28;20307;-79
2022/12/04 15:19:47;;;;;;;;;;;2.50;99.90;;;;;;8363419;28;19953;-79
2022/12/04 15:23:49;;;;;;;;;;;2.50;99.90;;;;;;8351842;28;19932;-79
2022/12/04 15:27:52;;;;;;;;;;;2.50;99.90;;;;;;8348942;28;19931;-79
2022/12/04 15:31:56;;;;;;;;;;;2.50;99.90;;;;;;8374113;28;19971;-80
2022/12/04 15:35:59;;;;;;;;;;;2.50;99.90;;;;;;8365036;28;19932;-79
2022/12/04 15:40:04;;;;;;;;;;;2.50;99.90;;;;;;8367032;28;20745;-80
2022/12/04 15:44:21;;;;;;;;;;;2.50;99.90;;;;;;8367616;28;19928;-79
2022/12/04 15:48:27;;;;;;;;;;;2.50;99.90;;;;;;8369647;28;19924;-80
2022/12/04 15:52:29;;;;;;;;;;;2.50;99.90;;;;;;8366483;28;20012;-80
2022/12/04 15:56:30;;;;;;;;;;;2.50;99.90;;;;;;8361850;28;19999;-80
2022/12/04 16:00:35;;;;;;;;;;;2.40;99.90;;;;;;8344691;28;19964;-79
2022/12/04 16:14:59;;;;;;;;;;;2.50;99.90;;;;;;8366600;28;19951;-80
2022/12/04 16:19:26;;;;;;;;;;;2.50;99.90;;;;;;8368302;28;19979;-79
2022/12/04 16:23:30;;;;;;;;;;;2.50;99.90;;;;;;8371701;28;19935;-79
2022/12/04 16:27:31;;;;;;;;;;;2.50;99.90;;;;;;8366320;28;19924;-80
2022/12/04 16:31:34;;;;;;;;;;;2.50;99.90;;;;;;8352090;28;19940;-80
2022/12/04 16:35:36;;;;;;;;;;;2.50;99.90;;;;;;8367446;28;19956;-79
2022/12/04 16:39:37;;;;;;;;;;;2.50;99.90;;;;;;8350944;28;19933;-79
2022/12/04 16:43:42;;;;;;;;;;;2.40;99.90;;;;;;8351166;28;19936;-79
2022/12/04 16:47:44;;;;;;;;;;;2.40;99.90;;;;;;8350516;28;19932;-80
2022/12/04 16:51:48;;;;;;;;;;;2.40;99.90;;;;;;8360701;28;20046;-80
2022/12/04 17:00:54;;;;;;;;;;;2.50;99.90;;;;;;8369944;28;19924;-80
2022/12/04 17:04:56;;;;;;;;;;;2.50;99.90;;;;;;8365574;28;19925;-79
2022/12/04 17:08:58;;;;;;;;;;;2.50;99.90;;;;;;8366732;28;19932;-79
2022/12/04 17:13:02;;;;;;;;;;;2.60;99.90;;;;;;8364134;28;19929;-79
2022/12/04 17:17:04;;;;;;;;;;;2.60;99.90;;;;;;8346224;28;19925;-80
2022/12/04 17:21:06;;;;;;;;;;;2.60;99.90;;;;;;8360104;28;19924;-79
2022/12/04 17:25:08;;;;;;;;;;;2.60;99.90;;;;;;8366328;28;20211;-80
2022/12/04 17:29:10;;;;;;;;;;;2.70;99.90;;;;;;8362586;28;20047;-80
2022/12/04 17:33:12;;;;;;;;;;;2.70;99.90;;;;;;8367434;28;19933;-79
2022/12/04 17:37:14;;;;;;;;;;;2.70;99.90;;;;;;8354489;28;20392;-80
2022/12/04 17:41:15;;;;;;;;;;;2.70;99.90;;;;;;8369304;28;19934;-80
2022/12/04 17:45:17;;;;;;;;;;;2.70;99.90;;;;;;8367516;28;19925;-79
2022/12/04 17:49:19;;;;;;;;;;;2.70;99.90;;;;;;8388276;28;19925;-80
2022/12/04 17:53:20;;;;;;;;;;;2.70;99.90;;;;;;8363213;28;20115;-80
2022/12/04 17:57:22;;;;;;;;;;;2.70;99.90;;;;;;8361161;28;20024;-79
2022/12/04 18:01:25;;;;;;;;;;;2.70;99.90;;;;;;8377623;28;19936;-80
2022/12/04 18:05:27;;;;;;;;;;;2.80;99.90;;;;;;8356654;28;19935;-80
2022/12/04 18:09:30;;;;;;;;;;;2.80;99.90;;;;;;8369841;28;19925;-80
2022/12/04 18:13:32;;;;;;;;;;;2.80;99.90;;;;;;8368887;28;19925;-80
2022/12/04 18:17:33;;;;;;;;;;;2.80;99.90;;;;;;8378492;28;19928;-80
2022/12/04 18:21:35;;;;;;;;;;;2.80;99.90;;;;;;8374597;28;19928;-80
2022/12/04 18:25:36;;;;;;;;;;;2.80;99.90;;;;;;8360832;28;19950;-80
2022/12/04 18:29:38;;;;;;;;;;;2.90;99.90;;;;;;8369701;28;19928;-79
2022/12/04 18:33:41;;;;;;;;;;;2.90;99.90;;;;;;8376417;28;20675;-79
2022/12/04 18:37:42;;;;;;;;;;;2.90;99.90;;;;;;8370772;28;20036;-79
2022/12/04 18:41:44;;;;;;;;;;;2.90;99.90;;;;;;8367323;28;19929;-80
2022/12/04 18:45:46;;;;;;;;;;;2.90;99.90;;;;;;8376578;28;20261;-80
2022/12/04 18:49:48;;;;;;;;;;;3.00;99.90;;;;;;8359403;28;20355;-80
2022/12/04 18:53:51;;;;;;;;;;;3.00;99.90;;;;;;8368852;28;19925;-80
2022/12/04 18:57:52;;;;;;;;;;;3.00;99.90;;;;;;8368439;28;20347;-80
2022/12/04 19:01:54;;;;;;;;;;;3.00;99.90;;;;;;8374650;28;19971;-80
2022/12/04 19:05:56;;;;;;;;;;;3.00;99.90;;;;;;8372663;28;19932;-80
2022/12/04 19:09:58;;;;;;;;;;;3.00;99.90;;;;;;8355663;28;19928;-80
2022/12/04 19:14:15;;;;;;;;;;;3.00;99.90;;;;;;8374066;28;19924;-80
2022/12/04 19:18:23;;;;;;;;;;;3.00;99.90;;;;;;8380641;28;19972;-79
2022/12/04 19:22:25;;;;;;;;;;;3.00;99.90;;;;;;8383800;28;19971;-80
2022/12/04 19:26:28;;;;;;;;;;;3.00;99.90;;;;;;8370403;28;20015;-79
2022/12/04 19:30:31;;;;;;;;;;;3.00;99.90;;;;;;8383819;28;19935;-80
2022/12/04 19:34:33;;;;;;;;;;;3.00;99.90;;;;;;8374996;28;19964;-80
2022/12/04 19:38:35;;;;;;;;;;;3.00;99.90;;;;;;8370849;28;20016;-80
2022/12/04 19:42:36;;;;;;;;;;;3.00;99.90;;;;;;8375567;28;19924;-80
2022/12/04 19:46:38;;;;;;;;;;;3.10;99.90;;;;;;8370464;28;19959;-80
2022/12/04 19:50:40;;;;;;;;;;;3.10;99.90;;;;;;8363706;28;19931;-80
2022/12/04 19:54:42;;;;;;;;;;;3.10;99.90;;;;;;8355784;28;19980;-80
2022/12/04 19:58:43;;;;;;;;;;;3.10;99.90;;;;;;8370153;28;19975;-80
2022/12/04 20:02:45;;;;;;;;;;;3.10;99.90;;;;;;8376650;28;19928;-81
2022/12/04 20:06:47;;;;;;;;;;;3.10;99.90;;;;;;8370454;28;19989;-80
2022/12/04 20:10:48;;;;;;;;;;;3.10;99.90;;;;;;8374332;28;19932;-80
2022/12/04 20:14:50;;;;;;;;;;;3.20;99.90;;;;;;8371582;28;19929;-80
2022/12/04 20:18:52;;;;;;;;;;;3.20;99.90;;;;;;8372450;28;20006;-80
2022/12/04 20:22:55;;;;;;;;;;;3.20;99.90;;;;;;8375985;28;19936;-80
2022/12/04 20:26:56;;;;;;;;;;;3.20;99.90;;;;;;8370152;28;20007;-80
2022/12/04 20:30:58;;;;;;;;;;;3.20;99.90;;;;;;8370911;28;20447;-80
2022/12/04 20:35:00;;;;;;;;;;;3.20;99.90;;;;;;8370593;28;19940;-80
2022/12/04 20:39:02;;;;;;;;;;;3.20;99.90;;;;;;8377575;28;19956;-80
2022/12/04 20:43:03;;;;;;;;;;;3.20;99.90;;;;;;8369458;28;20031;-80
2022/12/04 20:52:10;;;;;;;;;;;3.20;99.90;;;;;;8367399;28;19974;-80
2022/12/04 20:56:12;;;;;;;;;;;3.20;99.90;;;;;;8367168;28;19964;-80
2022/12/04 21:00:14;;;;;;;;;;;3.20;99.90;;;;;;8363270;28;19972;-80
2022/12/04 21:04:18;;;;;;;;;;;3.20;99.90;;;;;;8371926;28;19925;-80
2022/12/04 21:08:51;;;;;;;;;;;3.20;99.90;;;;;;8354769;28;19928;-81
2022/12/04 21:17:02;;;;;;;;;;;3.30;99.90;;;;;;8370118;28;19963;-80
2022/12/04 21:21:04;;;;;;;;;;;3.30;99.90;;;;;;8366390;28;19932;-80
2022/12/04 21:25:07;;;;;;;;;;;3.30;99.90;;;;;;8368084;28;19970;-80
2022/12/04 21:29:09;;;;;;;;;;;3.30;99.90;;;;;;8363765;28;19925;-80
2022/12/04 21:33:11;;;;;;;;;;;3.30;99.90;;;;;;8365421;28;20024;-81
2022/12/04 21:37:13;;;;;;;;;;;3.30;99.90;;;;;;8369513;28;20406;-81
2022/12/04 21:45:35;;;;;;;;;;;3.30;99.90;;;;;;8366174;28;19980;-80
2022/12/04 21:49:37;;;;;;;;;;;3.30;99.90;;;;;;8365512;28;19924;-80
2022/12/04 21:53:38;;;;;;;;;;;3.30;99.90;;;;;;8380196;28;20011;-81
2022/12/04 21:57:43;;;;;;;;;;;3.30;99.90;;;;;;8364059;28;19987;-81
2022/12/04 22:01:44;;;;;;;;;;;3.30;99.90;;;;;;8371253;28;20015;-80
2022/12/04 22:05:46;;;;;;;;;;;3.30;99.90;;;;;;8384400;28;19924;-81
2022/12/04 22:09:48;;;;;;;;;;;3.40;99.90;;;;;;8385898;28;20277;-80
2022/12/04 22:13:49;;;;;;;;;;;3.40;99.90;;;;;;8386806;28;19929;-80
2022/12/04 22:22:54;;;;;;;;;;;3.40;99.90;;;;;;8377991;28;19985;-80
2022/12/04 22:26:56;;;;;;;;;;;3.40;99.90;;;;;;8385199;28;19931;-80
2022/12/04 22:31:02;;;;;;;;;;;3.50;99.90;;;;;;8392421;28;19930;-80
2022/12/04 22:35:04;;;;;;;;;;;3.50;99.90;;;;;;8385934;28;19929;-81
2022/12/04 22:39:05;;;;;;;;;;;3.50;99.90;;;;;;8384408;28;19929;-80
2022/12/04 22:43:11;;;;;;;;;;;3.50;99.90;;;;;;8391933;28;19933;-80
2022/12/04 22:47:13;;;;;;;;;;;3.50;99.90;;;;;;8395240;28;19932;-80
2022/12/04 22:51:16;;;;;;;;;;;3.50;99.90;;;;;;8389786;28;19925;-80
2022/12/04 22:55:18;;;;;;;;;;;3.60;99.90;;;;;;8385391;28;20520;-80
2022/12/04 22:59:19;;;;;;;;;;;3.60;99.90;;;;;;8371253;28;19924;-80
2022/12/04 23:03:21;;;;;;;;;;;3.60;99.90;;;;;;8396988;28;20014;-80
2022/12/04 23:07:22;;;;;;;;;;;3.60;99.90;;;;;;8389291;28;19924;-80
2022/12/04 23:11:24;;;;;;;;;;;3.60;99.90;;;;;;8387875;28;19974;-81
2022/12/04 23:15:26;;;;;;;;;;;3.60;99.90;;;;;;8380193;28;19972;-80
2022/12/04 23:19:30;;;;;;;;;;;3.60;99.90;;;;;;8389533;28;19964;-80
2022/12/04 23:23:32;;;;;;;;;;;3.70;99.90;;;;;;8386998;28;19936;-80
2022/12/04 23:27:34;;;;;;;;;;;3.70;99.90;;;;;;8393457;28;19937;-80
2022/12/04 23:31:36;;;;;;;;;;;3.70;99.90;;;;;;8380720;28;19931;-80
2022/12/04 23:35:37;;;;;;;;;;;3.70;99.90;;;;;;8375031;28;19928;-80
2022/12/04 23:39:39;;;;;;;;;;;3.70;99.90;;;;;;8393664;28;19925;-80
2022/12/04 23:43:41;;;;;;;;;;;3.70;99.90;;;;;;8385355;28;20003;-80
2022/12/04 23:47:43;;;;;;;;;;;3.80;99.90;;;;;;8390070;28;20380;-81
2022/12/04 23:51:45;;;;;;;;;;;3.70;99.90;;;;;;8390664;28;19935;-80
2022/12/04 23:55:56;;;;;;;;;;;3.80;99.90;;;;;;8380740;28;20419;-80
2022/12/04 23:59:58;;;;;;;;;;;3.80;99.90;;;;;;8375859;28;20332;-80
